Mystic Dancer — WDH2986 — position and weather

sailwx.info

Track history (hours):
 
Tides and Currents Weather Stations Pressure Air Temp Water Temp Dewpoint Dewpoint Depression Visibility Wind Speed Wind Dir Waves Ship Positions

Mystic Dancer

Owner: Knorr, Bill, Boulder, CO. More information available from US FCC via Universal Licensing System and Coast Guard Vessel Documentation Center.

Last reported at 2017-Oct-01 19:24 UTC. Time now 2017-Dec-12 12:34 UTC.
Position N 48°31' W 122°44'.
Warning: this ship's position is months out of date.

Length 18 m.

Type: Pleasure craft. MMSI: 367603180.

Date/timePositionNaut miles runAvg speedWind from/ knotsBaromVisibWave heightAir tempDewpointWater temp
2017-Oct-01 19:24N 48°31' W 122°44'3 8.4
2017-Oct-01 19:00N 48°32' W 122°49'5 9.0
2017-Oct-01 18:30N 48°35' W 122°54'4 8.2
2017-Oct-01 17:58N 48°38' W 122°59'2 3.4
2017-Oct-01 17:29N 48°36' W 123°00'  
2017-Sep-23 21:24N 48°32' W 122°44'410.1
2017-Sep-23 20:59N 48°35' W 122°47'3 6.7
2017-Sep-23 20:30N 48°35' W 122°52'5 9.1
2017-Sep-23 20:00N 48°32' W 122°58'18 0.4
2017-Sep-21 20:59N 48°39' W 123°24'8 8.2
2017-Sep-21 19:58N 48°32' W 123°17'4 8.2
2017-Sep-21 19:30N 48°28' W 123°16'  
Track history (hours):
 
Tides and Currents Weather Stations Pressure Air Temp Water Temp Dewpoint Dewpoint Depression Visibility Wind Speed Wind Dir Waves Ship Positions

Mystic Dancer

Owner: Knorr, Bill, Boulder, CO. More information available from US FCC via Universal Licensing System and Coast Guard Vessel Documentation Center.

Last reported at 2017-Oct-01 19:24 UTC. Time now 2017-Dec-12 12:34 UTC.
Position N 48°31' W 122°44'.
Warning: this ship's position is months out of date.

Length 18 m.

Type: Pleasure craft. MMSI: 367603180.

Date/timePositionNaut miles runAvg speedWind from/ knotsBaromVisibWave heightAir tempDewpointWater temp
2017-Oct-01 19:24N 48°31' W 122°44'3 8.4
2017-Oct-01 19:00N 48°32' W 122°49'5 9.0
2017-Oct-01 18:30N 48°35' W 122°54'4 8.2
2017-Oct-01 17:58N 48°38' W 122°59'2 3.4
2017-Oct-01 17:29N 48°36' W 123°00'  
2017-Sep-23 21:24N 48°32' W 122°44'410.1
2017-Sep-23 20:59N 48°35' W 122°47'3 6.7
2017-Sep-23 20:30N 48°35' W 122°52'5 9.1
2017-Sep-23 20:00N 48°32' W 122°58'18 0.4
2017-Sep-21 20:59N 48°39' W 123°24'8 8.2
2017-Sep-21 19:58N 48°32' W 123°17'4 8.2
2017-Sep-21 19:30N 48°28' W 123°16'  

Dump ship's entire track history